Home > Products > Valid Products > TAF

000
FTUS45 KTWC 010520
TAFTUS
TAF
KTUS 010520Z 0106/0206 16007KT P6SM VCTS SCT080CB SCT120
     FM010800 17008KT P6SM SCT080 SCT120
     FM011800 28005KT P6SM SCT250
     FM020000 29010KT P6SM VCSH SCT100 SCT150
     FM020300 07010KT P6SM SCT100 SCT150=



000
FTUS45 KTWC 010520
TAFOLS
TAF
KOLS 010520Z 0106/0206 13006KT P6SM VCTS SCT070CB SCT120
     FM010800 16007KT P6SM OVC100
     FM011900 25010KT P6SM VCSH SCT070 SCT120
     FM020400 15004KT P6SM BKN100=



000
FTUS45 KTWC 010520
TAFTUS
TAF
KTUS 010520Z 0106/0206 16007KT P6SM VCTS SCT080CB SCT120
     FM010800 17008KT P6SM SCT080 SCT120
     FM011800 28005KT P6SM SCT250
     FM020000 29010KT P6SM VCSH SCT100 SCT150
     FM020300 07010KT P6SM SCT100 SCT150=



000
FTUS45 KTWC 010520
TAFOLS
TAF
KOLS 010520Z 0106/0206 13006KT P6SM VCTS SCT070CB SCT120
     FM010800 16007KT P6SM OVC100
     FM011900 25010KT P6SM VCSH SCT070 SCT120
     FM020400 15004KT P6SM BKN100=



000
FTUS45 KTWC 010520
TAFDUG
TAF
KDUG 010520Z 0106/0206 14006KT P6SM SCT250
     FM011900 22007KT P6SM SCT250
     FM012300 28013KT P6SM SCT080 SCT120
     FM020400 30007KT P6SM BKN100=



000
FTUS45 KTWC 010520
TAFDUG
TAF
KDUG 010520Z 0106/0206 14006KT P6SM SCT250
     FM011900 22007KT P6SM SCT250
     FM012300 28013KT P6SM SCT080 SCT120
     FM020400 30007KT P6SM BKN100=



000
FTUS45 KTWC 010520
TAFOLS
TAF
KOLS 010520Z 0106/0206 13006KT P6SM VCTS SCT070CB SCT120
     FM010800 16007KT P6SM OVC100
     FM011900 25010KT P6SM VCSH SCT070 SCT120
     FM020400 15004KT P6SM BKN100=



000
FTUS45 KTWC 010520
TAFOLS
TAF
KOLS 010520Z 0106/0206 13006KT P6SM VCTS SCT070CB SCT120
     FM010800 16007KT P6SM OVC100
     FM011900 25010KT P6SM VCSH SCT070 SCT120
     FM020400 15004KT P6SM BKN100=



000
FTUS45 KTWC 010403 AAC
TAFOLS
TAF AMD
KOLS 010403Z 0104/0124 09007KT P6SM VCTS SCT090CB BKN140
      TEMPO 0104/0106 VRB12G20KT 4SM -TSRA SCT040CB
     FM010600 13006KT P6SM SCT080 SCT120=



000
FTUS45 KTWC 010403 AAC
TAFOLS
TAF AMD
KOLS 010403Z 0104/0124 09007KT P6SM VCTS SCT090CB BKN140
      TEMPO 0104/0106 VRB12G20KT 4SM -TSRA SCT040CB
     FM010600 13006KT P6SM SCT080 SCT120=



000
FTUS45 KTWC 010403 AAC
TAFOLS
TAF AMD
KOLS 010403Z 0104/0124 09007KT P6SM VCTS SCT090CB BKN140
      TEMPO 0104/0106 VRB12G20KT 4SM -TSRA SCT040CB
     FM010600 13006KT P6SM SCT080 SCT120=



000
FTUS45 KTWC 010331 AAB
TAFOLS
TAF AMD
KOLS 010331Z 0104/0124 09007KT P6SM VCTS SCT090CB BKN140
      TEMPO 0104/0106 VRB12G20KT 2SM -TSRA SCT040CB
     FM010600 13006KT P6SM SCT080 SCT120=



000
FTUS45 KTWC 010314 AAC
TAFTUS
TAF AMD
KTUS 010314Z 0103/0124 24010KT P6SM VCTS SCT080CB SCT120
      TEMPO 0103/0105 VRB15G30KT -TSRA BKN080CB
     FM010500 16007KT P6SM SCT080 SCT120
     FM011800 28005KT P6SM SCT250=



000
FTUS45 KTWC 010314 AAC
TAFTUS
TAF AMD
KTUS 010314Z 0103/0124 24010KT P6SM VCTS SCT080CB SCT120
      TEMPO 0103/0105 VRB15G30KT -TSRA BKN080CB
     FM010500 16007KT P6SM SCT080 SCT120
     FM011800 28005KT P6SM SCT250=



000
FTUS45 KTWC 010258 AAB
TAFTUS
TAF AMD
KTUS 010258Z 0103/0124 24010KT P6SM VCTS SCT080CB SCT120
     FM010500 16007KT P6SM SCT080 SCT120
     FM011800 28005KT P6SM SCT250=



000
FTUS45 KTWC 010255 AAA
TAFOLS
TAF AMD
KOLS 010255Z 0103/0124 09007KT P6SM VCTS SCT090CB BKN140
      TEMPO 0103/0106 VRB12G20KT -TSRA SCT040CB
     FM010600 13006KT P6SM SCT080 SCT120=



000
FTUS45 KTWC 010255 AAA
TAFOLS
TAF AMD
KOLS 010255Z 0103/0124 09007KT P6SM VCTS SCT090CB BKN140
      TEMPO 0103/0106 VRB12G20KT -TSRA SCT040CB
     FM010600 13006KT P6SM SCT080 SCT120=



000
FTUS45 KTWC 010255 AAA
TAFOLS
TAF AMD
KOLS 010255Z 0103/0124 09007KT P6SM VCTS SCT090CB BKN140
      TEMPO 0103/0106 VRB12G20KT -TSRA SCT040CB
     FM010600 13006KT P6SM SCT080 SCT120=



000
FTUS45 KTWC 010255 AAA
TAFOLS
TAF AMD
KOLS 010255Z 0103/0124 09007KT P6SM VCTS SCT090CB BKN140
      TEMPO 0103/0106 VRB12G20KT -TSRA SCT040CB
     FM010600 13006KT P6SM SCT080 SCT120=



000
FTUS45 KTWC 010220 AAA
TAFDUG
TAF AMD
KDUG 010220Z 0102/0124 17015G28KT P6SM VCSH SCT080 BKN140
     FM010600 12006KT P6SM SCT090 BKN150
     FM011900 22007KT P6SM SCT250=



000
FTUS45 KTWC 010220 AAA
TAFDUG
TAF AMD
KDUG 010220Z 0102/0124 17015G28KT P6SM VCSH SCT080 BKN140
     FM010600 12006KT P6SM SCT090 BKN150
     FM011900 22007KT P6SM SCT250=



000
FTUS45 KTWC 010039 AAA
TAFTUS
TAF AMD
KTUS 010039Z 0101/0124 32012G20KT P6SM VCTS SCT100CB SCT150
      TEMPO 0101/0103 VRB15G30KT BKN100CB
     FM010300 24010KT P6SM SCT080 SCT120
     FM010500 16007KT P6SM SCT080 SCT120
     FM011800 28005KT P6SM SCT250=



000
FTUS45 KTWC 302331
TAFOLS
TAF
KOLS 302331Z 0100/0124 30010KT P6SM VCTS SCT090CB SCT140
      TEMPO 0100/0103 VRB15G35KT 4SM -TSRA BKN060CB BKN090
     FM010300 09007KT P6SM VCSH SCT090 BKN140
     FM010600 13006KT P6SM SCT080 SCT120=



000
FTUS45 KTWC 302331
TAFTUS
TAF
KTUS 302331Z 0100/0124 32012G20KT P6SM VCTS SCT100CB SCT150
     FM010300 24010KT P6SM SCT080 SCT120
     FM010500 16007KT P6SM SCT080 SCT120
     FM011800 28005KT P6SM SCT250=



000
FTUS45 KTWC 302331
TAFDUG
TAF
KDUG 302331Z 0100/0124 10010G20KT P6SM VCSH SCT080 BKN140
     FM010600 12006KT P6SM SCT090 BKN150
     FM011900 22007KT P6SM SCT250=



000
FTUS45 KTWC 302331
TAFOLS
TAF
KOLS 302331Z 0100/0124 30010KT P6SM VCTS SCT090CB SCT140
      TEMPO 0100/0103 VRB15G35KT 4SM -TSRA BKN060CB BKN090
     FM010300 09007KT P6SM VCSH SCT090 BKN140
     FM010600 13006KT P6SM SCT080 SCT120=



000
FTUS45 KTWC 302212 AAA
TAFOLS
TAF AMD
KOLS 302212Z 3022/0118 30010KT P6SM VCTS SCT090CB SCT140
      TEMPO 3022/0101 VRB15G25KT 4SM -TSRA BKN060CB BKN090
     FM010100 05009KT P6SM VCSH SCT090 BKN140
     FM010600 14006KT P6SM SCT080 SCT120=



000
FTUS45 KTWC 302212 AAA
TAFOLS
TAF AMD
KOLS 302212Z 3022/0118 30010KT P6SM VCTS SCT090CB SCT140
      TEMPO 3022/0101 VRB15G25KT 4SM -TSRA BKN060CB BKN090
     FM010100 05009KT P6SM VCSH SCT090 BKN140
     FM010600 14006KT P6SM SCT080 SCT120=



000
FTUS45 KTWC 301720
TAFOLS
TAF
KOLS 301720Z 3018/0118 26010KT P6SM FEW080 SCT200
     FM302100 30010KT P6SM VCTS SCT090CB SCT140
     FM010000 05009KT P6SM VCSH SCT090 BKN140
     FM010600 14006KT P6SM SCT080 SCT120=



000
FTUS45 KTWC 301720
TAFDUG
TAF
KDUG 301720Z 3018/0118 08010KT P6SM SCT080 SCT250
     FM302000 07011G17KT P6SM SCT080 SCT150
     FM010000 26010KT P6SM VCSH SCT080 BKN140
     FM010600 12006KT P6SM FEW050 SCT090 BKN150=



000
FTUS45 KTWC 301720
TAFTUS
TAF
KTUS 301720Z 3018/0118 VRB04KT P6SM SCT090 SCT150
     FM302100 32011KT P6SM VCTS SCT100CB SCT150
     FM010000 34008KT P6SM VCSH SCT100 BKN150
     FM010500 16007KT P6SM SCT080 SCT120=



000
FTUS45 KTWC 301720
TAFOLS
TAF
KOLS 301720Z 3018/0118 26010KT P6SM FEW080 SCT200
     FM302100 30010KT P6SM VCTS SCT090CB SCT140
     FM010000 05009KT P6SM VCSH SCT090 BKN140
     FM010600 14006KT P6SM SCT080 SCT120=



000
FTUS45 KTWC 301720
TAFTUS
TAF
KTUS 301720Z 3018/0118 VRB04KT P6SM SCT090 SCT150
     FM302100 32011KT P6SM VCTS SCT100CB SCT150
     FM010000 34008KT P6SM VCSH SCT100 BKN150
     FM010500 16007KT P6SM SCT080 SCT120=



000
FTUS45 KTWC 301720
TAFOLS
TAF
KOLS 301720Z 3018/0118 26010KT P6SM FEW080 SCT200
     FM302100 30010KT P6SM VCTS SCT090CB SCT140
     FM010000 05009KT P6SM VCSH SCT090 BKN140
     FM010600 14006KT P6SM SCT080 SCT120=



000
FTUS45 KTWC 301140
TAFOLS
TAF
KOLS 301140Z 3012/0112 VRB04KT P6SM VCTS SCT090CB SCT200
     FM301800 26010KT P6SM FEW080 SCT200
     FM302000 30010KT P6SM VCTS SCT090CB SCT140
     FM010000 05009KT P6SM VCSH SCT090 BKN140
     FM010600 14006KT P6SM SCT080 SCT120=



000
FTUS45 KTWC 301140
TAFDUG
TAF
KDUG 301140Z 3012/0112 27011KT P6SM VCSH FEW050 SCT080 BKN120
     FM301700 08010KT P6SM SCT080 SCT250
     FM302000 07011G17KT P6SM VCTS SCT080CB SCT150
     FM010000 26010KT P6SM VCSH SCT080 BKN140
     FM010600 12006KT P6SM FEW050 SCT090 BKN150=



000
FTUS45 KTWC 301140
TAFOLS
TAF
KOLS 301140Z 3012/0112 VRB04KT P6SM VCTS SCT090CB SCT200
     FM301800 26010KT P6SM FEW080 SCT200
     FM302000 30010KT P6SM VCTS SCT090CB SCT140
     FM010000 05009KT P6SM VCSH SCT090 BKN140
     FM010600 14006KT P6SM SCT080 SCT120=



000
FTUS45 KTWC 301140
TAFTUS
TAF
KTUS 301140Z 3012/0112 15010KT P6SM VCTS SCT080CB BKN150
     FM301500 VRB04KT P6SM SCT090 BKN150
     FM302100 32011KT P6SM VCTS SCT100CB SCT150
     FM010000 34008KT P6SM VCSH SCT100 BKN150
     FM010500 24007KT P6SM SCT080 SCT120=



000
FTUS45 KTWC 301008 AAB
TAFDUG
TAF AMD
KDUG 301008Z 3010/0106 09012G22KT P6SM SCT060 BKN110
     FM301700 08010KT P6SM SCT080 SCT250
     FM302000 13011G18KT P6SM VCTS SCT080CB SCT140
     FM010000 26010KT P6SM VCSH SCT080 BKN140=



000
FTUS45 KTWC 301008 AAB
TAFDUG
TAF AMD
KDUG 301008Z 3010/0106 09012G22KT P6SM SCT060 BKN110
     FM301700 08010KT P6SM SCT080 SCT250
     FM302000 13011G18KT P6SM VCTS SCT080CB SCT140
     FM010000 26010KT P6SM VCSH SCT080 BKN140=



000
FTUS45 KTWC 301006 AAB
TAFTUS
TAF AMD
KTUS 301006Z 3010/0106 14008KT P6SM VCTS SCT080CB BKN150
      TEMPO 3010/3012 -TSRA BKN080CB
     FM301500 VRB04KT P6SM FEW090 SCT250
     FM302200 32009KT P6SM VCTS SCT100CB SCT150
     FM010000 34008KT P6SM VCSH SCT100 BKN150=



000
FTUS45 KTWC 301006 AAB
TAFTUS
TAF AMD
KTUS 301006Z 3010/0106 14008KT P6SM VCTS SCT080CB BKN150
      TEMPO 3010/3012 -TSRA BKN080CB
     FM301500 VRB04KT P6SM FEW090 SCT250
     FM302200 32009KT P6SM VCTS SCT100CB SCT150
     FM010000 34008KT P6SM VCSH SCT100 BKN150=



000
FTUS45 KTWC 300748 AAA
TAFDUG
TAF AMD
KDUG 300748Z 3008/0106 30008KT P6SM VCSH SCT100 BKN200
     FM301000 VRB04KT P6SM FEW070 SCT250
     FM301700 08010KT P6SM SCT080 SCT250
     FM302000 13011G18KT P6SM VCTS SCT080CB SCT140
     FM010000 26010KT P6SM VCSH SCT080 BKN140=



000
FTUS45 KTWC 300520
TAFOLS
TAF
KOLS 300520Z 3006/0106 VRB03KT P6SM SCT110 SCT250
     FM301700 26008KT P6SM FEW080 SCT250
     FM302000 30010KT P6SM VCTS SCT090CB SCT140
     FM010000 05009KT P6SM VCSH SCT090 BKN140=



000
FTUS45 KTWC 300520
TAFOLS
TAF
KOLS 300520Z 3006/0106 VRB03KT P6SM SCT110 SCT250
     FM301700 26008KT P6SM FEW080 SCT250
     FM302000 30010KT P6SM VCTS SCT090CB SCT140
     FM010000 05009KT P6SM VCSH SCT090 BKN140=



000
FTUS45 KTWC 300520
TAFTUS
TAF
KTUS 300520Z 3006/0106 14008KT P6SM SCT120 SCT250
     FM301500 VRB04KT P6SM FEW090 SCT250
     FM302200 32009KT P6SM VCTS SCT100CB SCT150
     FM010000 34008KT P6SM VCSH SCT100 BKN150=



000
FTUS45 KTWC 300520
TAFDUG
TAF
KDUG 300520Z 3006/0106 02012KT P6SM SCT100 SCT250
     FM301000 VRB04KT P6SM FEW070 SCT250
     FM301700 08010KT P6SM SCT080 SCT250
     FM302000 13011G18KT P6SM VCTS SCT080CB SCT140
     FM010000 26010KT P6SM VCSH SCT080 BKN140=



000
FTUS45 KTWC 300125 AAA
TAFTUS
TAF AMD
KTUS 300125Z 3001/3024 04011G20KT P6SM VCTS FEW090CB BKN150
      TEMPO 3001/3003 VRB20G35KT 5SM -TSRA FEW030CB BKN110
     FM300400 11006KT P6SM VCSH SCT110 BKN250
     FM300600 14007KT P6SM FEW140 SCT250
     FM302200 32009KT P6SM VCSH SCT100 SCT150=



000
FTUS45 KTWC 292338
TAFTUS
TAF
KTUS 292338Z 3000/3024 21010G19KT P6SM VCTS FEW100CB BKN150
      TEMPO 3000/3002 VRB20G35KT -TSRA FEW080CB BKN110
     FM300200 24006KT P6SM VCSH SCT110 BKN250
     FM300600 14007KT P6SM FEW140 SCT250
     FM302200 32009KT P6SM VCSH SCT100 SCT150=



000
FTUS45 KTWC 292338
TAFOLS
TAF
KOLS 292338Z 3000/3024 26010KT P6SM VCTS SCT080CB BKN110 OVC150
      TEMPO 3000/3002 VRB20G35KT -TSRA FEW025 BKN080CB OVC110
     FM300300 13011KT P6SM VCSH FEW080 SCT110 BKN250
     FM300600 VRB04KT P6SM FEW120 SCT250
     FM302000 27009KT P6SM VCSH SCT090 SCT140=



000
FTUS45 KTWC 292338
TAFDUG
TAF
KDUG 292338Z 3000/3024 30008KT P6SM VCSH SCT100 SCT250
     FM300200 35008KT P6SM SCT100 BKN250
     FM300800 VRB03KT P6SM SCT250
     FM301900 25009KT P6SM VCSH SCT080 SCT140=



000
FTUS45 KTWC 292338
TAFOLS
TAF
KOLS 292338Z 3000/3024 26010KT P6SM VCTS SCT080CB BKN110 OVC150
      TEMPO 3000/3002 VRB20G35KT -TSRA FEW025 BKN080CB OVC110
     FM300300 13011KT P6SM VCSH FEW080 SCT110 BKN250
     FM300600 VRB04KT P6SM FEW120 SCT250
     FM302000 27009KT P6SM VCSH SCT090 SCT140=



000
FTUS45 KTWC 292338
TAFDUG
TAF
KDUG 292338Z 3000/3024 30008KT P6SM VCSH SCT100 SCT250
     FM300200 35008KT P6SM SCT100 BKN250
     FM300800 VRB03KT P6SM SCT250
     FM301900 25009KT P6SM VCSH SCT080 SCT140=



000
FTUS45 KTWC 292338
TAFOLS
TAF
KOLS 292338Z 3000/3024 26010KT P6SM VCTS SCT080CB BKN110 OVC150
      TEMPO 3000/3002 VRB20G35KT -TSRA FEW025 BKN080CB OVC110
     FM300300 13011KT P6SM VCSH FEW080 SCT110 BKN250
     FM300600 VRB04KT P6SM FEW120 SCT250
     FM302000 27009KT P6SM VCSH SCT090 SCT140=



000
FTUS45 KTWC 292338
TAFTUS
TAF
KTUS 292338Z 3000/3024 21010G19KT P6SM VCTS FEW100CB BKN150
      TEMPO 3000/3002 VRB20G35KT -TSRA FEW080CB BKN110
     FM300200 24006KT P6SM VCSH SCT110 BKN250
     FM300600 14007KT P6SM FEW140 SCT250
     FM302200 32009KT P6SM VCSH SCT100 SCT150=



000
FTUS45 KTWC 292233 AAC
TAFTUS
TAF AMD
KTUS 292233Z 2923/3018 35010G17KT P6SM VCTS FEW110CB BKN200
      TEMPO 2923/3001 VRB20G35KT -TSRA
     FM300200 22006KT P6SM SCT120 BKN300
     FM300700 14007KT P6SM FEW140 SCT350
     FM301600 VRB05KT P6SM FEW100 SCT300=



000
FTUS45 KTWC 292006 AAB
TAFOLS
TAF AMD
KOLS 292006Z 2920/3018 31008KT P6SM VCTS FEW025 SCT080CB BKN110
      TEMPO 2920/2922 VRB15G35KT -TSRA FEW025 BKN080CB OVC110
     FM300100 22006KT P6SM FEW080 SCT110 BKN250
     FM300600 VRB04KT P6SM FEW120 SCT300=



000
FTUS45 KTWC 292006 AAB
TAFOLS
TAF AMD
KOLS 292006Z 2920/3018 31008KT P6SM VCTS FEW025 SCT080CB BKN110
      TEMPO 2920/2922 VRB15G35KT -TSRA FEW025 BKN080CB OVC110
     FM300100 22006KT P6SM FEW080 SCT110 BKN250
     FM300600 VRB04KT P6SM FEW120 SCT300=



000
FTUS45 KTWC 292006 AAB
TAFOLS
TAF AMD
KOLS 292006Z 2920/3018 31008KT P6SM VCTS FEW025 SCT080CB BKN110
      TEMPO 2920/2922 VRB15G35KT -TSRA FEW025 BKN080CB OVC110
     FM300100 22006KT P6SM FEW080 SCT110 BKN250
     FM300600 VRB04KT P6SM FEW120 SCT300=



000
FTUS45 KTWC 291943 AAA
TAFOLS
TAF AMD
KOLS 291943Z 2920/3018 31008KT P6SM VCTS SCT080CB BKN110
      TEMPO 2920/2922 VRB15G40KT 5SM -TSRA BKN080CB OVC110
     FM300100 22006KT P6SM FEW080 SCT110 BKN250
     FM300600 VRB04KT P6SM FEW120 SCT300=



000
FTUS45 KTWC 291943 AAA
TAFOLS
TAF AMD
KOLS 291943Z 2920/3018 31008KT P6SM VCTS SCT080CB BKN110
      TEMPO 2920/2922 VRB15G40KT 5SM -TSRA BKN080CB OVC110
     FM300100 22006KT P6SM FEW080 SCT110 BKN250
     FM300600 VRB04KT P6SM FEW120 SCT300=



000
FTUS45 KTWC 291943 AAA
TAFOLS
TAF AMD
KOLS 291943Z 2920/3018 31008KT P6SM VCTS SCT080CB BKN110
      TEMPO 2920/2922 VRB15G40KT 5SM -TSRA BKN080CB OVC110
     FM300100 22006KT P6SM FEW080 SCT110 BKN250
     FM300600 VRB04KT P6SM FEW120 SCT300=



000
FTUS45 KTWC 291943 AAA
TAFOLS
TAF AMD
KOLS 291943Z 2920/3018 31008KT P6SM VCTS SCT080CB BKN110
      TEMPO 2920/2922 VRB15G40KT 5SM -TSRA BKN080CB OVC110
     FM300100 22006KT P6SM FEW080 SCT110 BKN250
     FM300600 VRB04KT P6SM FEW120 SCT300=



000
FTUS45 KTWC 291725
TAFDUG
TAF
KDUG 291725Z 2918/3018 VRB06KT P6SM SCT110 SCT300
     FM292200 10007KT P6SM SCT070 BKN110
     FM300200 35008KT P6SM SCT120 BKN250
     FM300800 VRB03KT P6SM SCT300=



000
FTUS45 KTWC 291725
TAFOLS
TAF
KOLS 291725Z 2918/3018 VRB06KT P6SM SCT080 SCT120
     FM292000 31008KT P6SM VCTS SCT080CB BKN110
      TEMPO 2921/2923 VRB15G40KT -TSRA BKN080CB OVC110
     FM300100 22006KT P6SM FEW080 SCT110 BKN250
     FM300600 VRB04KT P6SM FEW120 SCT300=



000
FTUS45 KTWC 291725
TAFTUS
TAF
KTUS 291725Z 2918/3018 VRB06KT P6SM SCT120 SCT300
     FM292100 32010KT P6SM VCSH SCT080 BKN120
     FM300200 22006KT P6SM SCT120 BKN300
     FM300700 14007KT P6SM FEW140 SCT350
     FM301600 VRB05KT P6SM FEW100 SCT300=



000
FTUS45 KTWC 291725
TAFTUS
TAF
KTUS 291725Z 2918/3018 VRB06KT P6SM SCT120 SCT300
     FM292100 32010KT P6SM VCSH SCT080 BKN120
     FM300200 22006KT P6SM SCT120 BKN300
     FM300700 14007KT P6SM FEW140 SCT350
     FM301600 VRB05KT P6SM FEW100 SCT300=



000
FTUS45 KTWC 291725
TAFOLS
TAF
KOLS 291725Z 2918/3018 VRB06KT P6SM SCT080 SCT120
     FM292000 31008KT P6SM VCTS SCT080CB BKN110
      TEMPO 2921/2923 VRB15G40KT -TSRA BKN080CB OVC110
     FM300100 22006KT P6SM FEW080 SCT110 BKN250
     FM300600 VRB04KT P6SM FEW120 SCT300=



000
FTUS45 KTWC 291725
TAFDUG
TAF
KDUG 291725Z 2918/3018 VRB06KT P6SM SCT110 SCT300
     FM292200 10007KT P6SM SCT070 BKN110
     FM300200 35008KT P6SM SCT120 BKN250
     FM300800 VRB03KT P6SM SCT300=



000
FTUS45 KTWC 291725
TAFOLS
TAF
KOLS 291725Z 2918/3018 VRB06KT P6SM SCT080 SCT120
     FM292000 31008KT P6SM VCTS SCT080CB BKN110
      TEMPO 2921/2923 VRB15G40KT -TSRA BKN080CB OVC110
     FM300100 22006KT P6SM FEW080 SCT110 BKN250
     FM300600 VRB04KT P6SM FEW120 SCT300=



000
FTUS45 KTWC 291725
TAFOLS
TAF
KOLS 291725Z 2918/3018 VRB06KT P6SM SCT080 SCT120
     FM292000 31008KT P6SM VCTS SCT080CB BKN110
      TEMPO 2921/2923 VRB15G40KT -TSRA BKN080CB OVC110
     FM300100 22006KT P6SM FEW080 SCT110 BKN250
     FM300600 VRB04KT P6SM FEW120 SCT300=



000
FTUS45 KTWC 291137
TAFOLS
TAF
KOLS 291137Z 2912/3012 VRB03KT P6SM FEW140 BKN250
     FM291700 VRB03KT P6SM SCT080
     FM292000 31010KT P6SM VCTS BKN070CB BKN110
     FM300100 22006KT P6SM FEW080 SCT110 BKN200
     FM300600 18005KT P6SM FEW120 SCT250=



000
FTUS45 KTWC 291137
TAFTUS
TAF
KTUS 291137Z 2912/3012 16007KT P6SM FEW140 SCT250
     FM291300 VRB03KT P6SM FEW250
     FM292000 32010KT P6SM VCSH SCT080 BKN120
     FM300200 22006KT P6SM SCT120 BKN200
     FM300700 14007KT P6SM FEW140 SCT250=



000
FTUS45 KTWC 291137
TAFOLS
TAF
KOLS 291137Z 2912/3012 VRB03KT P6SM FEW140 BKN250
     FM291700 VRB03KT P6SM SCT080
     FM292000 31010KT P6SM VCTS BKN070CB BKN110
     FM300100 22006KT P6SM FEW080 SCT110 BKN200
     FM300600 18005KT P6SM FEW120 SCT250=



000
FTUS45 KTWC 291137
TAFDUG
TAF
KDUG 291137Z 2912/3012 07005KT P6SM SCT200
     FM291800 VRB03KT P6SM FEW070
     FM292100 13009KT P6SM SCT070 BKN110
     FM300200 35008KT P6SM SCT120 BKN200
     FM300800 VRB03KT P6SM SCT200=



000
FTUS45 KTWC 291137
TAFTUS
TAF
KTUS 291137Z 2912/3012 16007KT P6SM FEW140 SCT250
     FM291300 VRB03KT P6SM FEW250
     FM292000 32010KT P6SM VCSH SCT080 BKN120
     FM300200 22006KT P6SM SCT120 BKN200
     FM300700 14007KT P6SM FEW140 SCT250=



000
FTUS45 KTWC 291137
TAFDUG
TAF
KDUG 291137Z 2912/3012 07005KT P6SM SCT200
     FM291800 VRB03KT P6SM FEW070
     FM292100 13009KT P6SM SCT070 BKN110
     FM300200 35008KT P6SM SCT120 BKN200
     FM300800 VRB03KT P6SM SCT200=



000
FTUS45 KTWC 291137
TAFOLS
TAF
KOLS 291137Z 2912/3012 VRB03KT P6SM FEW140 BKN250
     FM291700 VRB03KT P6SM SCT080
     FM292000 31010KT P6SM VCTS BKN070CB BKN110
     FM300100 22006KT P6SM FEW080 SCT110 BKN200
     FM300600 18005KT P6SM FEW120 SCT250=



000
FTUS45 KTWC 291137
TAFOLS
TAF
KOLS 291137Z 2912/3012 VRB03KT P6SM FEW140 BKN250
     FM291700 VRB03KT P6SM SCT080
     FM292000 31010KT P6SM VCTS BKN070CB BKN110
     FM300100 22006KT P6SM FEW080 SCT110 BKN200
     FM300600 18005KT P6SM FEW120 SCT250=



000
FTUS45 KTWC 290520
TAFOLS
TAF
KOLS 290520Z 2906/3006 13008KT P6SM SCT080 BKN120
     FM291000 VRB05KT P6SM SCT120 BKN200
     FM291200 VRB05KT P6SM SCT200
     FM292100 32010KT P6SM VCSH SCT100 BKN150=



000
FTUS45 KTWC 290520
TAFTUS
TAF
KTUS 290520Z 2906/3006 10010KT P6SM SCT090 BKN150
     FM290700 14007KT P6SM SCT140 BKN300
     FM291600 VRB06KT P6SM FEW100 SCT300
     FM292000 30010KT P6SM VCSH SCT100 BKN160=



000
FTUS45 KTWC 290520
TAFOLS
TAF
KOLS 290520Z 2906/3006 13008KT P6SM SCT080 BKN120
     FM291000 VRB05KT P6SM SCT120 BKN200
     FM291200 VRB05KT P6SM SCT200
     FM292100 32010KT P6SM VCSH SCT100 BKN150=



000
FTUS45 KTWC 290520
TAFTUS
TAF
KTUS 290520Z 2906/3006 10010KT P6SM SCT090 BKN150
     FM290700 14007KT P6SM SCT140 BKN300
     FM291600 VRB06KT P6SM FEW100 SCT300
     FM292000 30010KT P6SM VCSH SCT100 BKN160=



000
FTUS45 KTWC 290520
TAFOLS
TAF
KOLS 290520Z 2906/3006 13008KT P6SM SCT080 BKN120
     FM291000 VRB05KT P6SM SCT120 BKN200
     FM291200 VRB05KT P6SM SCT200
     FM292100 32010KT P6SM VCSH SCT100 BKN150=



000
FTUS45 KTWC 290520
TAFOLS
TAF
KOLS 290520Z 2906/3006 13008KT P6SM SCT080 BKN120
     FM291000 VRB05KT P6SM SCT120 BKN200
     FM291200 VRB05KT P6SM SCT200
     FM292100 32010KT P6SM VCSH SCT100 BKN150=



000
FTUS45 KTWC 290520
TAFDUG
TAF
KDUG 290520Z 2906/3006 07010KT P6SM SCT100 BKN200
     FM290800 VRB03KT P6SM SCT120 BKN200
     FM291500 VRB06KT P6SM SCT200
     FM292100 05009KT P6SM VCSH SCT070 BKN140=



000
FTUS45 KTWC 290520
TAFDUG
TAF
KDUG 290520Z 2906/3006 07010KT P6SM SCT100 BKN200
     FM290800 VRB03KT P6SM SCT120 BKN200
     FM291500 VRB06KT P6SM SCT200
     FM292100 05009KT P6SM VCSH SCT070 BKN140=



000
FTUS45 KTWC 290313 AAB
TAFOLS
TAF AMD
KOLS 290313Z 2903/2924 17010KT P6SM VCTS SCT100CB BKN140
      TEMPO 2904/2905 VRB15G30KT -TSRA BKN090CB BKN150
     FM290500 09010KT P6SM SCT080 BKN120
     FM290700 VRB05KT P6SM SCT120 BKN300
     FM291200 VRB05KT P6SM SCT300
     FM292100 32010KT P6SM VCSH SCT100 BKN150=



000
FTUS45 KTWC 290313 AAB
TAFOLS
TAF AMD
KOLS 290313Z 2903/2924 17010KT P6SM VCTS SCT100CB BKN140
      TEMPO 2904/2905 VRB15G30KT -TSRA BKN090CB BKN150
     FM290500 09010KT P6SM SCT080 BKN120
     FM290700 VRB05KT P6SM SCT120 BKN300
     FM291200 VRB05KT P6SM SCT300
     FM292100 32010KT P6SM VCSH SCT100 BKN150=



000
FTUS45 KTWC 290310 AAE
TAFTUS
TAF AMD
KTUS 290310Z 2903/2924 22007KT P6SM BKN100 OVC140
     FM290400 10010KT P6SM SCT090 BKN140
     FM290700 14007KT P6SM SCT140 BKN300
     FM291600 VRB06KT P6SM FEW100 SCT300
     FM292200 30010KT P6SM VCSH SCT100 BKN160=



000
FTUS45 KTWC 290310 AAE
TAFTUS
TAF AMD
KTUS 290310Z 2903/2924 22007KT P6SM BKN100 OVC140
     FM290400 10010KT P6SM SCT090 BKN140
     FM290700 14007KT P6SM SCT140 BKN300
     FM291600 VRB06KT P6SM FEW100 SCT300
     FM292200 30010KT P6SM VCSH SCT100 BKN160=



000
FTUS45 KTWC 290123 AAB
TAFTUS
TAF AMD
KTUS 290123Z 2901/2924 29010G15KT P6SM BKN100 BKN140
     FM290200 29010G15KT P6SM VCTS BKN100CB OVC140
      TEMPO 2902/2904 VRB15G35KT 6SM -TSRA BKN090CB BKN130
     FM290400 10010KT P6SM SCT090 BKN140
     FM290700 14007KT P6SM SCT140 BKN300
     FM291600 VRB06KT P6SM FEW100 SCT300
     FM292200 30010KT P6SM VCSH SCT100 BKN160=



000
FTUS45 KTWC 290123 AAB
TAFTUS
TAF AMD
KTUS 290123Z 2901/2924 29010G15KT P6SM BKN100 BKN140
     FM290200 29010G15KT P6SM VCTS BKN100CB OVC140
      TEMPO 2902/2904 VRB15G35KT 6SM -TSRA BKN090CB BKN130
     FM290400 10010KT P6SM SCT090 BKN140
     FM290700 14007KT P6SM SCT140 BKN300
     FM291600 VRB06KT P6SM FEW100 SCT300
     FM292200 30010KT P6SM VCSH SCT100 BKN160=



000
FTUS45 KTWC 290117 AAA
TAFOLS
TAF AMD
KOLS 290117Z 2901/2924 03010KT P6SM VCTS SCT100CB BKN150
      TEMPO 2901/2903 VRB20G35KT -TSRA BKN090CB BKN150
     FM290300 09010KT P6SM SCT080 BKN120
     FM290700 VRB05KT P6SM SCT120 BKN300
     FM291200 VRB05KT P6SM SCT300
     FM292100 32010KT P6SM VCSH SCT100 BKN150=



000
FTUS45 KTWC 290117 AAA
TAFOLS
TAF AMD
KOLS 290117Z 2901/2924 03010KT P6SM VCTS SCT100CB BKN150
      TEMPO 2901/2903 VRB20G35KT -TSRA BKN090CB BKN150
     FM290300 09010KT P6SM SCT080 BKN120
     FM290700 VRB05KT P6SM SCT120 BKN300
     FM291200 VRB05KT P6SM SCT300
     FM292100 32010KT P6SM VCSH SCT100 BKN150=



000
FTUS45 KTWC 282320
TAFDUG
TAF
KDUG 282320Z 2900/2924 09011KT P6SM SCT090 BKN150
     FM290300 07011KT P6SM SCT080 BKN300
     FM290800 VRB03KT P6SM SCT120 BKN300
     FM291500 VRB06KT P6SM SCT300
     FM292100 05009KT P6SM VCSH SCT070 BKN140=



000
FTUS45 KTWC 282320
TAFTUS
TAF
KTUS 282320Z 2900/2924 14015G21KT P6SM VCTS BKN100CB BKN140
      TEMPO 2900/2901 VRB15G35KT 6SM -TSRA BKN090CB BKN130
     FM290100 10010KT P6SM SCT090 BKN140
     FM290700 14007KT P6SM SCT140 BKN300
     FM291600 VRB06KT P6SM FEW100 SCT300
     FM292200 30010KT P6SM VCSH SCT100 BKN160=



000
FTUS45 KTWC 282320
TAFDUG
TAF
KDUG 282320Z 2900/2924 09011KT P6SM SCT090 BKN150
     FM290300 07011KT P6SM SCT080 BKN300
     FM290800 VRB03KT P6SM SCT120 BKN300
     FM291500 VRB06KT P6SM SCT300
     FM292100 05009KT P6SM VCSH SCT070 BKN140=



000
FTUS45 KTWC 282320
TAFOLS
TAF
KOLS 282320Z 2900/2924 06015G25KT P6SM VCTS SCT100CB BKN150
      TEMPO 2900/2901 VRB20G35KT -TSRA BKN090CB BKN150
     FM290200 09010KT P6SM SCT080 BKN120
     FM290700 VRB05KT P6SM SCT120 BKN300
     FM291200 VRB05KT P6SM SCT300
     FM292100 32010KT P6SM VCSH SCT100 BKN150=



000
FTUS45 KTWC 282320
TAFTUS
TAF
KTUS 282320Z 2900/2924 14015G21KT P6SM VCTS BKN100CB BKN140
      TEMPO 2900/2901 VRB15G35KT 6SM -TSRA BKN090CB BKN130
     FM290100 10010KT P6SM SCT090 BKN140
     FM290700 14007KT P6SM SCT140 BKN300
     FM291600 VRB06KT P6SM FEW100 SCT300
     FM292200 30010KT P6SM VCSH SCT100 BKN160=



000
FTUS45 KTWC 282320
TAFOLS
TAF
KOLS 282320Z 2900/2924 06015G25KT P6SM VCTS SCT100CB BKN150
      TEMPO 2900/2901 VRB20G35KT -TSRA BKN090CB BKN150
     FM290200 09010KT P6SM SCT080 BKN120
     FM290700 VRB05KT P6SM SCT120 BKN300
     FM291200 VRB05KT P6SM SCT300
     FM292100 32010KT P6SM VCSH SCT100 BKN150=



000
FTUS45 KTWC 282320
TAFOLS
TAF
KOLS 282320Z 2900/2924 06015G25KT P6SM VCTS SCT100CB BKN150
      TEMPO 2900/2901 VRB20G35KT -TSRA BKN090CB BKN150
     FM290200 09010KT P6SM SCT080 BKN120
     FM290700 VRB05KT P6SM SCT120 BKN300
     FM291200 VRB05KT P6SM SCT300
     FM292100 32010KT P6SM VCSH SCT100 BKN150=



000
FTUS45 KTWC 282320
TAFOLS
TAF
KOLS 282320Z 2900/2924 06015G25KT P6SM VCTS SCT100CB BKN150
      TEMPO 2900/2901 VRB20G35KT -TSRA BKN090CB BKN150
     FM290200 09010KT P6SM SCT080 BKN120
     FM290700 VRB05KT P6SM SCT120 BKN300
     FM291200 VRB05KT P6SM SCT300
     FM292100 32010KT P6SM VCSH SCT100 BKN150=



000
FTUS45 KTWC 282231 AAB
TAFOLS
TAF AMD
KOLS 282231Z 2823/2918 31009KT P6SM VCTS SCT100CB BKN150
      TEMPO 2823/2901 06020G35KT
     FM290100 09010KT P6SM SCT080 BKN110
     FM290700 VRB05KT P6SM SCT120 BKN300
     FM291200 VRB05KT P6SM SCT300=



000
FTUS45 KTWC 282231 AAB
TAFOLS
TAF AMD
KOLS 282231Z 2823/2918 31009KT P6SM VCTS SCT100CB BKN150
      TEMPO 2823/2901 06020G35KT
     FM290100 09010KT P6SM SCT080 BKN110
     FM290700 VRB05KT P6SM SCT120 BKN300
     FM291200 VRB05KT P6SM SCT300=



000
FTUS45 KTWC 282123 AAB
TAFTUS
TAF AMD
KTUS 282123Z 2821/2918 22010KT P6SM VCSH BKN100 BKN200
      TEMPO 2822/2824 VRB15G35KT 6SM -TSRA SCT040 BKN080CB
     FM290000 32007KT P6SM SCT090 BKN140
     FM290700 14007KT P6SM SCT140 BKN300
     FM291600 VRB06KT P6SM FEW100 SCT300=



000
FTUS45 KTWC 282123 AAB
TAFTUS
TAF AMD
KTUS 282123Z 2821/2918 22010KT P6SM VCSH BKN100 BKN200
      TEMPO 2822/2824 VRB15G35KT 6SM -TSRA SCT040 BKN080CB
     FM290000 32007KT P6SM SCT090 BKN140
     FM290700 14007KT P6SM SCT140 BKN300
     FM291600 VRB06KT P6SM FEW100 SCT300=



000
FTUS45 KTWC 282034 AAA
TAFOLS
TAF AMD
KOLS 282034Z 2821/2918 10015KT P6SM VCTS SCT100CB BKN150
      TEMPO 2821/2823 VRB20G35KT
     FM290000 20010KT P6SM SCT080 BKN110
     FM290700 VRB05KT P6SM SCT120 BKN300
     FM291200 VRB05KT P6SM SCT300=



000
FTUS45 KTWC 282034 AAA
TAFOLS
TAF AMD
KOLS 282034Z 2821/2918 10015KT P6SM VCTS SCT100CB BKN150
      TEMPO 2821/2823 VRB20G35KT
     FM290000 20010KT P6SM SCT080 BKN110
     FM290700 VRB05KT P6SM SCT120 BKN300
     FM291200 VRB05KT P6SM SCT300=



000
FTUS45 KTWC 282033 AAB
TAFTUS
TAF AMD
KTUS 282033Z 2821/2918 30012KT P6SM VCTS SCT090CB BKN140
      TEMPO 2821/2823 18020G40KT 6SM -TSRA SCT040 BKN080CB
     FM290000 32007KT P6SM SCT090 BKN140
     FM290700 14007KT P6SM SCT140 BKN300
     FM291600 VRB06KT P6SM FEW100 SCT300=



000
FTUS45 KTWC 281735
TAFOLS
TAF
KOLS 281735Z 2818/2918 VRB06KT P6SM SCT070 SCT300
     FM282100 18009KT P6SM VCTS SCT070CB BKN150
      TEMPO 2822/2824 VRB20G35KT
     FM290000 20010KT P6SM SCT080 BKN110
     FM290700 VRB05KT P6SM SCT120 BKN300
     FM291200 VRB05KT P6SM SCT300=



000
FTUS45 KTWC 281735
TAFDUG
TAF
KDUG 281735Z 2818/2918 14009KT P6SM SCT080 SCT300
     FM282000 12011KT P6SM BKN090 BKN150
     FM290300 05011KT P6SM SCT080 BKN130
     FM290800 VRB03KT P6SM SCT120 BKN300
     FM291500 VRB06KT P6SM SCT300=



000
FTUS45 KTWC 281735
TAFTUS
TAF
KTUS 281735Z 2818/2918 VRB06KT P6SM SCT080 SCT300
     FM282100 VRB06KT P6SM VCTS SCT080CB BKN150
      TEMPO 2821/2823 VRB20G45KT 6SM -TSRA SCT040 BKN080CB
     FM290000 32007KT P6SM SCT090 BKN140
     FM290700 14007KT P6SM SCT140 BKN300
     FM291600 VRB06KT P6SM FEW100 SCT300=



000
FTUS45 KTWC 281735
TAFOLS
TAF
KOLS 281735Z 2818/2918 VRB06KT P6SM SCT070 SCT300
     FM282100 18009KT P6SM VCTS SCT070CB BKN150
      TEMPO 2822/2824 VRB20G35KT
     FM290000 20010KT P6SM SCT080 BKN110
     FM290700 VRB05KT P6SM SCT120 BKN300
     FM291200 VRB05KT P6SM SCT300=



000
FTUS45 KTWC 281605 AAB
TAFTUS
TAF AMD
KTUS 281605Z 2816/2912 12005KT P6SM BKN250
     FM281700 11007KT P6SM SCT080 BKN250
     FM282000 32005KT P6SM VCTS BKN080CB BKN120
      TEMPO 2821/2823 VRB20G40KT 6SM -TSRA SCT040 BKN070CB
     FM290000 10010KT P6SM SCT090 BKN120
     FM290700 14007KT P6SM SCT140 BKN200=



000
FTUS45 KTWC 281605 AAB
TAFTUS
TAF AMD
KTUS 281605Z 2816/2912 12005KT P6SM BKN250
     FM281700 11007KT P6SM SCT080 BKN250
     FM282000 32005KT P6SM VCTS BKN080CB BKN120
      TEMPO 2821/2823 VRB20G40KT 6SM -TSRA SCT040 BKN070CB
     FM290000 10010KT P6SM SCT090 BKN120
     FM290700 14007KT P6SM SCT140 BKN200=



000
FTUS45 KTWC 281336 AAA
TAFOLS
TAF AMD
KOLS 281336Z 2814/2912 VRB03KT P6SM FEW120 BKN200
     FM281700 14005KT P6SM SCT070 BKN200
     FM282100 18009KT P6SM VCTS SCT070CB BKN110
     FM290000 20010KT P6SM SCT080 BKN110
     FM290700 14007KT P6SM SCT120 BKN200=



000
FTUS45 KTWC 281336 AAA
TAFOLS
TAF AMD
KOLS 281336Z 2814/2912 VRB03KT P6SM FEW120 BKN200
     FM281700 14005KT P6SM SCT070 BKN200
     FM282100 18009KT P6SM VCTS SCT070CB BKN110
     FM290000 20010KT P6SM SCT080 BKN110
     FM290700 14007KT P6SM SCT120 BKN200=



000
FTUS45 KTWC 281334 AAA
TAFDUG
TAF AMD
KDUG 281334Z 2814/2912 36007KT P6SM BKN200
     FM281700 12009KT P6SM FEW070 BKN200
     FM282000 10011KT P6SM BKN070 BKN110
     FM290300 05011KT P6SM SCT080 BKN120
     FM290800 VRB03KT P6SM SCT120 BKN200=



000
FTUS45 KTWC 281333 AAA
TAFTUS
TAF AMD
KTUS 281333Z 2814/2912 15005KT P6SM BKN250
     FM281700 11007KT P6SM SCT080 BKN250
     FM282000 32005KT P6SM VCTS BKN080CB BKN120
      TEMPO 2820/2822 VRB20G40KT 6SM -TSRA BLDU SCT040 BKN070CB
     FM290000 10010KT P6SM SCT090 BKN120
     FM290700 14007KT P6SM SCT140 BKN200=



000
FTUS45 KTWC 281333 AAA
TAFTUS
TAF AMD
KTUS 281333Z 2814/2912 15005KT P6SM BKN250
     FM281700 11007KT P6SM SCT080 BKN250
     FM282000 32005KT P6SM VCTS BKN080CB BKN120
      TEMPO 2820/2822 VRB20G40KT 6SM -TSRA BLDU SCT040 BKN070CB
     FM290000 10010KT P6SM SCT090 BKN120
     FM290700 14007KT P6SM SCT140 BKN200=



000
FTUS45 KTWC 281124
TAFOLS
TAF
KOLS 281124Z 2812/2912 VRB03KT P6SM BKN120 OVC180
     FM281700 14005KT P6SM SCT070 SCT120 BKN200
     FM282100 18009KT P6SM VCTS SCT070CB BKN110
      TEMPO 2821/2823 VRB15G35KT P6SM -TSRA SCT035 BKN060CB
     FM290000 20010KT P6SM SCT080 BKN110
     FM290700 14007KT P6SM SCT120 BKN200=



000
FTUS45 KTWC 281124
TAFOLS
TAF
KOLS 281124Z 2812/2912 VRB03KT P6SM BKN120 OVC180
     FM281700 14005KT P6SM SCT070 SCT120 BKN200
     FM282100 18009KT P6SM VCTS SCT070CB BKN110
      TEMPO 2821/2823 VRB15G35KT P6SM -TSRA SCT035 BKN060CB
     FM290000 20010KT P6SM SCT080 BKN110
     FM290700 14007KT P6SM SCT120 BKN200=



000
FTUS45 KTWC 281124
TAFDUG
TAF
KDUG 281124Z 2812/2912 VRB04KT P6SM SCT120 BKN180
     FM281700 12009KT P6SM SCT070 BKN180
     FM282000 10011KT P6SM BKN070 BKN110
     FM290300 05011KT P6SM SCT080 BKN120
     FM290800 VRB03KT P6SM SCT120 BKN200=



000
FTUS45 KTWC 281124
TAFTUS
TAF
KTUS 281124Z 2812/2912 14007KT P6SM BKN140 BKN200
     FM281700 11007KT P6SM SCT080 BKN200
     FM282100 32005KT P6SM VCTS SCT080CB BKN120
      TEMPO 2821/2823 VRB20G40KT 6SM -TSRA BLDU SCT040 BKN070CB
     FM290000 10010KT P6SM SCT090 BKN120
     FM290700 14007KT P6SM SCT140 BKN200=



    US Dept of Commerce
    National Oceanic and Atmospheric Administration
    National Weather Service
    1325 East West Highway
    Silver Spring, MD 20910
    Page Author: NWS Internet Services Team
Disclaimer
Information Quality
Credits
Glossary
Privacy Policy
Freedom of Information Act (FOIA)
About Us
Career Opportunities